DTTZ/TOE METAR and TAF weather

Enter ICAO airport designator
Station Type Date Time Source
DTTZ METAR 2020/03/28 21:00 UTC NOAA

DTTZ 282100Z AUTO 03005KT NCD 18/10 Q1012


Station Type Date Time Source
DTTZ Decoded METAR 2020/03/28 21:00 UTC NOAA

Tozeur, Tunisia (DTTZ) 33-55N 008-06E 93M
Mar 28, 2020 - 05:00 PM EDT / 2020.03.28 2100 UTC
Wind: from the NNE (030 degrees) at 6 MPH (5 KT):0
Temperature: 64 F (18 C)
Dew Point: 50 F (10 C)
Relative Humidity: 59%
Pressure (altimeter): 29.88 in. Hg (1012 hPa)
ob: DTTZ 282100Z AUTO 03005KT NCD 18/10 Q1012
cycle: 21

Station Type Date Time Source
DTTZ TAF 2020/03/28 18:39 UTC NOAA

TAF DTTZ 281700Z 2818/2918 33010KT 9999 SCT030 PROB40
TEMPO 2821/2824 09017G27KT PROB30
TEMPO 4000 -TSRA FEW026CB

Example: see airport list